首页
METAR-TAF:

METAR-TAF

机场 :

尼诺伊·阿基诺国际机场

马尼拉, 菲律宾

纬度: 14-31N, 经度: 121-00E, 海拔: 14米

当前天气观测

该预报发布于1小时和5分钟前的15:00 UTC
风速5节,风向东南,在东北南转西南之间变化
温度 30°C
湿度 75%
气压 1012 hPa
能见度10公里或以上
少量云层高于2500英尺

METAR: RPLL 011500Z 13005KT 050V210 9999 FEW025 30/25 Q1012 NOSIG RMK A2988

时间: 00:05 (16:05 UTC)

预报

该预报发布于5小时和5分钟前的11:00 UTC
预报有效从01日的 12点(UTC)到 02日的 18点(UTC)
风速6节,风向东转东南
能见度10公里或以上
少量云层高于2500英尺
散云层高于30000英尺
短暂存在
从 01日的 12点(UTC)到 01日的 18点(UTC)
风速10节,风向东转东南
少量云层高于2500英尺
多云层高于30000英尺
短暂存在
从 01日的 18点(UTC)到 01日的 24点(UTC)
风速3节,风向多变

TAF: RPLL 011100Z 0112/0218 12006KT 9999 FEW025 SCT300 TX35/0205Z TN27/0121Z TEMPO 0112/0118 11010KT FEW025 BKN300 TEMPO 0118/0124 VRB03KT

超过4000个机场的气象观测和天气预报(METAR&TAF报告)。

可查询的气象台以黄色和红色小点在地图上表示。

将鼠标移到小点上方,可查看气象台名称。

然后点击查看天气观测和预报。

如需切换地图:点击带黑十字的绿色按钮放大地图;点击带横线的绿色按钮缩小地图;或者点击绿色箭头查看邻近地区的地图。


METAR-TAF: